Atmospheric History
12/06/2017 18:28  to  12/7/2017 18:28
Change End Date:
To complete the export process:
1) Select all of the data below
2) Copy the data to the clipboard
3) Open a word processor such as Notepad
4) Paste the data into the word processor
5) Save the file

Date/Time (MDT), AirTemp, RH, Dewpoint ,AvgWindSpeed, GustWindSpeed, WindDirection, PrecipType, PrecipIntensity, PrecipAccumulation, PrecipRate
12/07/2017 18:26, 38, 35, 13 ,11, 14, W, None, None, ,  
12/07/2017 18:19, 38, 35, 13 ,11, 16, W, None, None, ,  
12/07/2017 18:16, 38, 35, 13 ,12, 16, W, None, None, ,  
12/07/2017 18:06, 38, 35, 13 ,10, 16, W, None, None, ,  
12/07/2017 18:05, 38, 35, 13 ,11, 17, W, None, None, ,  
12/07/2017 17:55, 38, 34, 13 ,12, 15, W, None, None, ,  
12/07/2017 17:49, 38, 34, 13 ,13, 15, W, None, None, ,  
12/07/2017 17:45, 39, 34, 13 ,12, 16, W, None, None, ,  
12/07/2017 17:35, 39, 33, 13 ,12, 18, W, None, None, ,  
12/07/2017 17:34, 40, 33, 13 ,12, 18, W, None, None, ,  
12/07/2017 17:25, 40, 33, 13 ,13, 21, W, None, None, ,  
12/07/2017 17:19, 40, 32, 13 ,14, 23, W, None, None, ,  
12/07/2017 17:15, 40, 32, 13 ,16, 23, W, None, None, ,  
12/07/2017 17:05, 41, 32, 14 ,16, 20, W, None, None, ,  
12/07/2017 17:04, 41, 32, 14 ,16, 20, W, None, None, ,  
12/07/2017 16:55, 41, 32, 14 ,16, 19, W, None, None, ,  
12/07/2017 16:49, 41, 33, 14 ,11, 17, W, None, None, ,  
12/07/2017 16:45, 41, 33, 15 ,12, 19, W, None, None, ,  
12/07/2017 16:35, 40, 35, 15 ,11, 16, W, None, None, ,  
12/07/2017 16:34, 40, 35, 15 ,11, 16, W, None, None, ,  
12/07/2017 16:25, 40, 34, 15 ,10, 14, W, None, None, ,  
12/07/2017 16:19, 41, 34, 15 ,11, 16, W, None, None, ,  
12/07/2017 16:15, 42, 32, 15 ,12, 16, W, None, None, ,  
12/07/2017 16:05, 43, 32, 15 ,12, 16, W, None, None, ,  
12/07/2017 16:04, 43, 32, 15 ,12, 16, W, None, None, ,  
12/07/2017 15:55, 43, 33, 16 ,11, 15, W, None, None, ,  
12/07/2017 15:49, 42, 33, 16 ,10, 16, W, None, None, ,  
12/07/2017 15:45, 42, 33, 16 ,12, 16, W, None, None, ,  
12/07/2017 15:35, 44, 31, 15 ,12, 19, W, None, None, ,  
12/07/2017 15:34, 44, 31, 15 ,12, 19, W, None, None, ,  
12/07/2017 15:24, 44, 31, 16 ,13, 20, W, None, None, ,  
12/07/2017 15:19, 44, 31, 16 ,13, 20, W, None, None, ,  
12/07/2017 15:14, 44, 31, 16 ,14, 19, NW, None, None, ,  
12/07/2017 15:05, 44, 31, 16 ,12, 23, W, None, None, ,  
12/07/2017 15:04, 44, 31, 16 ,12, 23, W, None, None, ,  
12/07/2017 14:54, 44, 30, 16 ,14, 21, W, None, None, ,  
12/07/2017 14:49, 44, 30, 16 ,15, 21, W, None, None, ,  
12/07/2017 14:44, 44, 31, 16 ,15, 23, W, None, None, ,  
12/07/2017 14:34, 44, 30, 15 ,18, 23, W, None, None, ,  
12/07/2017 14:34, 44, 30, 15 ,17, 23, W, None, None, ,  
12/07/2017 14:24, 45, 30, 16 ,15, 22, W, None, None, ,  
12/07/2017 14:19, 45, 30, 16 ,19, 22, W, None, None, ,  
12/07/2017 14:14, 44, 30, 16 ,17, 27, W, None, None, ,  
12/07/2017 14:05, 45, 30, 16 ,17, 26, W, None, None, ,  
12/07/2017 14:04, 45, 30, 16 ,17, 26, W, None, None, ,  
12/07/2017 13:54, 44, 30, 15 ,21, 26, W, None, None, ,  
12/07/2017 13:49, 44, 30, 15 ,19, 27, W, None, None, ,  
12/07/2017 13:44, 44, 31, 16 ,21, 27, W, None, None, ,  
12/07/2017 13:34, 44, 31, 16 ,19, 28, NW, None, None, ,  
12/07/2017 13:34, 44, 32, 16 ,19, 28, NW, None, None, ,  
12/07/2017 13:24, 44, 31, 16 ,20, 27, NW, None, None, ,  
12/07/2017 13:19, 44, 31, 16 ,19, 27, W, None, None, ,  
12/07/2017 13:14, 44, 31, 16 ,19, 25, W, None, None, ,  
12/07/2017 13:04, 44, 31, 16 ,17, 22, W, None, None, ,  
12/07/2017 13:04, 44, 32, 16 ,16, 22, W, None, None, ,  
12/07/2017 12:54, 44, 32, 16 ,16, 24, NW, None, None, ,  
12/07/2017 12:49, 43, 32, 16 ,17, 25, NW, None, None, ,  
12/07/2017 12:43, 44, 32, 16 ,19, 24, NW, None, None, ,  
12/07/2017 12:35, 44, 32, 16 ,18, 24, NW, None, None, ,  
12/07/2017 12:33, 44, 32, 16 ,18, 24, NW, None, None, ,  
12/07/2017 12:23, 43, 33, 16 ,16, 22, NW, None, None, ,  
12/07/2017 12:19, 43, 33, 16 ,15, 22, NW, None, None, ,  
12/07/2017 12:13, 43, 32, 16 ,17, 22, NW, None, None, ,  
12/07/2017 12:04, 43, 34, 17 ,15, 19, NW, None, None, ,  
12/07/2017 12:03, 43, 34, 17 ,14, 17, NW, None, None, ,  
12/07/2017 11:53, 42, 34, 17 ,18, 24, W, None, None, ,  
12/07/2017 11:49, 41, 38, 18 ,11, 14, W, None, None, ,  
12/07/2017 11:43, 40, 39, 17 ,9, 12, W, None, None, ,  
12/07/2017 11:34, 39, 39, 17 ,10, 14, W, None, None, ,  
12/07/2017 11:33, 39, 39, 17 ,11, 14, W, None, None, ,  
12/07/2017 11:23, 38, 40, 17 ,11, 15, W, None, None, ,  
12/07/2017 11:19, 38, 40, 17 ,12, 14, W, None, None, ,  
12/07/2017 11:13, 38, 41, 17 ,9, 12, W, None, None, ,  
12/07/2017 11:04, 38, 41, 17 ,9, 12, W, None, None, ,  
12/07/2017 11:03, 38, 41, 17 ,9, 12, W, None, None, ,  
12/07/2017 10:53, 37, 42, 16 ,10, 12, W, None, None, ,  
12/07/2017 10:49, 37, 42, 16 ,9, 12, W, None, None, ,  
12/07/2017 10:43, 37, 42, 16 ,9, 12, W, None, None, ,  
12/07/2017 10:34, 37, 41, 16 ,10, 12, W, None, None, ,  
12/07/2017 10:33, 36, 42, 16 ,7, 12, W, None, None, ,  
12/07/2017 10:23, 36, 41, 15 ,9, 12, W, None, None, ,  
12/07/2017 10:19, 36, 41, 15 ,10, 12, W, None, None, ,  
12/07/2017 10:12, 36, 41, 15 ,9, 13, W, None, None, ,  
12/07/2017 10:04, 36, 41, 15 ,10, 13, W, None, None, ,  
12/07/2017 10:02, 36, 41, 15 ,10, 13, W, None, None, ,  
12/07/2017 09:52, 36, 41, 15 ,11, 17, W, None, None, ,  
12/07/2017 09:49, 36, 41, 15 ,12, 17, W, None, None, ,  
12/07/2017 09:42, 36, 41, 15 ,13, 17, W, None, None, ,  
12/07/2017 09:34, 36, 42, 15 ,11, 17, W, None, None, ,  
12/07/2017 09:32, 36, 42, 15 ,12, 17, W, None, None, ,  
12/07/2017 09:22, 35, 42, 15 ,11, 15, W, None, None, ,  
12/07/2017 09:19, 35, 42, 15 ,10, 15, W, None, None, ,  
12/07/2017 09:12, 35, 42, 15 ,11, 16, W, None, None, ,  
12/07/2017 09:04, 35, 42, 14 ,12, 16, W, None, None, ,  
12/07/2017 09:02, 35, 42, 14 ,11, 16, W, None, None, ,  
12/07/2017 08:52, 35, 42, 14 ,14, 19, W, None, None, ,  
12/07/2017 08:49, 35, 41, 14 ,15, 19, W, None, None, ,  
12/07/2017 08:42, 35, 42, 14 ,16, 20, W, None, None, ,  
12/07/2017 08:35, 34, 42, 14 ,16, 22, W, None, None, ,  
12/07/2017 08:32, 34, 42, 14 ,16, 22, W, None, None, ,  
12/07/2017 08:22, 34, 43, 14 ,16, 19, W, None, None, ,  
12/07/2017 08:19, 33, 43, 14 ,14, 19, W, None, None, ,  
12/07/2017 08:12, 33, 43, 13 ,15, 18, W, None, None, ,  
12/07/2017 08:04, 33, 43, 13 ,15, 17, W, None, None, ,  
12/07/2017 08:02, 33, 43, 13 ,14, 17, W, None, None, ,  
12/07/2017 07:52, 33, 44, 13 ,14, 17, W, None, None, ,  
12/07/2017 07:49, 32, 44, 13 ,13, 15, W, None, None, ,  
12/07/2017 07:42, 32, 44, 13 ,12, 14, W, None, None, ,  
12/07/2017 07:34, 32, 44, 13 ,10, 14, W, None, None, ,  
12/07/2017 07:32, 32, 44, 13 ,9, 14, W, None, None, ,  
12/07/2017 07:21, 31, 45, 12 ,7, 9, W, None, None, ,  
12/07/2017 07:19, 31, 45, 12 ,7, 10, W, None, None, ,  
12/07/2017 07:11, 31, 45, 12 ,9, 11, W, None, None, ,  
12/07/2017 07:04, 31, 45, 12 ,9, 12, SW, None, None, ,  
12/07/2017 07:01, 31, 45, 12 ,9, 12, SW, None, None, ,  
12/07/2017 06:51, 31, 46, 12 ,9, 11, W, None, None, ,  
12/07/2017 06:49, 30, 46, 12 ,9, 11, W, None, None, ,  
12/07/2017 06:41, 30, 45, 12 ,10, 11, W, None, None, ,  
12/07/2017 06:34, 30, 46, 12 ,10, 11, W, None, None, ,  
12/07/2017 06:31, 30, 46, 12 ,10, 11, W, None, None, ,  
12/07/2017 06:21, 30, 46, 12 ,10, 12, W, None, None, ,  
12/07/2017 06:19, 30, 46, 12 ,10, 12, W, None, None, ,  
12/07/2017 06:11, 30, 46, 12 ,10, 12, W, None, None, ,  
12/07/2017 06:04, 30, 46, 12 ,10, 13, W, None, None, ,  
12/07/2017 06:01, 30, 46, 12 ,11, 13, W, None, None, ,  
12/07/2017 05:51, 30, 46, 12 ,10, 12, W, None, None, ,  
12/07/2017 05:49, 30, 46, 12 ,11, 13, W, None, None, ,  
12/07/2017 05:41, 30, 46, 12 ,12, 13, W, None, None, ,  
12/07/2017 05:34, 30, 46, 12 ,9, 12, W, None, None, ,  
12/07/2017 05:31, 30, 46, 12 ,8, 11, W, None, None, ,  
12/07/2017 05:21, 29, 46, 12 ,9, 12, W, None, None, ,  
12/07/2017 05:19, 30, 46, 12 ,9, 12, W, None, None, ,  
12/07/2017 05:11, 30, 46, 12 ,9, 12, W, None, None, ,  
12/07/2017 05:04, 30, 46, 12 ,10, 12, W, None, None, ,  
12/07/2017 05:01, 30, 46, 12 ,10, 12, W, None, None, ,  
12/07/2017 04:51, 30, 46, 12 ,9, 11, W, None, None, ,  
12/07/2017 04:49, 30, 46, 12 ,9, 11, W, None, None, ,  
12/07/2017 04:40, 30, 46, 12 ,9, 11, W, None, None, ,  
12/07/2017 04:34, 31, 45, 12 ,9, 12, W, None, None, ,  
12/07/2017 04:30, 31, 45, 12 ,9, 11, W, None, None, ,  
12/07/2017 04:20, 31, 44, 12 ,9, 11, W, None, None, ,  
12/07/2017 04:19, 31, 45, 12 ,9, 11, W, None, None, ,  
12/07/2017 04:10, 30, 46, 12 ,8, 10, W, None, None, ,  
12/07/2017 04:04, 31, 46, 12 ,8, 11, W, None, None, ,  
12/07/2017 04:00, 31, 46, 13 ,8, 11, W, None, None, ,  
12/07/2017 03:50, 30, 46, 12 ,9, 11, W, None, None, ,  
12/07/2017 03:49, 30, 46, 12 ,8, 11, W, None, None, ,  
12/07/2017 03:40, 30, 47, 12 ,7, 10, W, None, None, ,  
12/07/2017 03:34, 30, 47, 12 ,8, 10, W, None, None, ,  
12/07/2017 03:30, 30, 46, 12 ,7, 9, W, None, None, ,  
12/07/2017 03:20, 30, 45, 11 ,7, 9, SW, None, None, ,  
12/07/2017 03:19, 30, 45, 11 ,7, 9, SW, None, None, ,  
12/07/2017 03:10, 30, 45, 12 ,7, 9, SW, None, None, ,  
12/07/2017 03:04, 30, 45, 12 ,7, 9, SW, None, None, ,  
12/07/2017 03:00, 30, 45, 12 ,7, 7, W, None, None, ,  
12/07/2017 02:50, 30, 46, 12 ,6, 7, W, None, None, ,  
12/07/2017 02:49, 30, 45, 12 ,6, 7, W, None, None, ,  
12/07/2017 02:40, 30, 45, 12 ,6, 6, W, None, None, ,  
12/07/2017 02:34, 30, 45, 12 ,5, 6, W, None, None, ,  
12/07/2017 02:30, 30, 46, 12 ,5, 7, W, None, None, ,  
12/07/2017 02:20, 30, 46, 12 ,6, 7, W, None, None, ,  
12/07/2017 02:19, 30, 46, 12 ,6, 7, W, None, None, ,  
12/07/2017 02:09, 29, 46, 11 ,6, 7, W, None, None, ,  
12/07/2017 02:04, 30, 46, 12 ,6, 7, SW, None, None, ,  
12/07/2017 01:59, 30, 46, 12 ,6, 7, SW, None, None, ,  
12/07/2017 01:49, 30, 46, 12 ,7, 7, SW, None, None, ,  
12/07/2017 01:49, 30, 46, 12 ,7, 7, SW, None, None, ,  
12/07/2017 01:39, 30, 46, 11 ,6, 7, SW, None, None, ,  
12/07/2017 01:34, 30, 45, 11 ,6, 7, W, None, None, ,  
12/07/2017 01:29, 29, 46, 11 ,6, 8, W, None, None, ,  
12/07/2017 01:19, 29, 46, 11 ,6, 8, SW, None, None, ,  
12/07/2017 01:19, 29, 46, 11 ,6, 8, SW, None, None, ,  
12/07/2017 01:09, 29, 46, 11 ,7, 9, SW, None, None, ,  
12/07/2017 01:04, 29, 46, 11 ,7, 8, SW, None, None, ,  
12/07/2017 00:59, 29, 46, 11 ,7, 8, SW, None, None, ,  
12/07/2017 00:49, 29, 47, 11 ,6, 7, SW, None, None, ,  
12/07/2017 00:49, 29, 47, 11 ,7, 7, SW, None, None, ,  
12/07/2017 00:39, 28, 47, 11 ,6, 7, SW, None, None, ,  
12/07/2017 00:34, 28, 47, 11 ,6, 6, SW, None, None, ,  
12/07/2017 00:29, 28, 47, 11 ,6, 7, SW, None, None, ,  
12/07/2017 00:19, 29, 45, 11 ,7, 9, SW, None, None, ,  
12/07/2017 00:19, 29, 46, 11 ,7, 9, SW, None, None, ,  
12/07/2017 00:09, 29, 46, 11 ,7, 9, SW, None, None, ,  
12/07/2017 00:04, 29, 46, 11 ,7, 9, SW, None, None, ,  
12/06/2017 23:59, 28, 46, 11 ,7, 9, SW, None, None, ,  
12/06/2017 23:49, 28, 47, 11 ,6, 9, SW, None, None, ,  
12/06/2017 23:49, 28, 47, 11 ,7, 9, SW, None, None, ,  
12/06/2017 23:38, 28, 46, 10 ,7, 10, SW, None, None, ,  
12/06/2017 23:34, 28, 46, 10 ,7, 9, SW, None, None, ,  
12/06/2017 23:28, 28, 46, 10 ,6, 9, SW, None, None, ,  
12/06/2017 23:19, 28, 46, 10 ,7, 10, SW, None, None, ,  
12/06/2017 23:18, 28, 46, 10 ,9, 10, SW, None, None, ,  
12/06/2017 23:08, 28, 46, 10 ,7, 9, SW, None, None, ,  
12/06/2017 23:04, 27, 48, 10 ,5, 8, SW, None, None, ,  
12/06/2017 22:58, 27, 48, 10 ,5, 11, SW, None, None, ,  
12/06/2017 22:49, 27, 48, 10 ,6, 7, SW, None, None, ,  
12/06/2017 22:48, 27, 48, 10 ,5, 6, SW, None, None, ,  
12/06/2017 22:38, 27, 47, 10 ,6, 9, SW, None, None, ,  
12/06/2017 22:34, 28, 47, 10 ,7, 9, SW, None, None, ,  
12/06/2017 22:28, 27, 47, 10 ,7, 9, SW, None, None, ,  
12/06/2017 22:19, 27, 47, 10 ,6, 8, SW, None, None, ,  
12/06/2017 22:18, 28, 47, 10 ,5, 7, SW, None, None, ,  
12/06/2017 22:08, 27, 47, 10 ,6, 7, W, None, None, ,  
12/06/2017 22:04, 27, 47, 10 ,6, 7, W, None, None, ,  
12/06/2017 21:58, 28, 47, 10 ,6, 7, W, None, None, ,  
12/06/2017 21:49, 27, 48, 10 ,6, 9, W, None, None, ,  
12/06/2017 21:48, 28, 48, 10 ,7, 9, W, None, None, ,  
12/06/2017 21:38, 27, 48, 10 ,4, 6, W, None, None, ,  
12/06/2017 21:34, 27, 48, 10 ,5, 7, W, None, None, ,  
12/06/2017 21:28, 27, 48, 10 ,6, 7, W, None, None, ,  
12/06/2017 21:19, 27, 48, 10 ,6, 7, W, None, None, ,  
12/06/2017 21:17, 27, 48, 10 ,6, 7, W, None, None, ,  
12/06/2017 21:07, 27, 47, 10 ,6, 7, W, None, None, ,  
12/06/2017 21:04, 27, 48, 10 ,5, 7, W, None, None, ,  
12/06/2017 20:57, 27, 48, 10 ,6, 7, W, None, None, ,  
12/06/2017 20:49, 27, 48, 10 ,7, 9, W, None, None, ,  
12/06/2017 20:47, 27, 47, 10 ,7, 9, W, None, None, ,  
12/06/2017 20:37, 26, 48, 10 ,7, 9, W, None, None, ,  
12/06/2017 20:34, 26, 49, 10 ,7, 8, W, None, None, ,  
12/06/2017 20:27, 26, 49, 9 ,6, 7, W, None, None, ,  
12/06/2017 20:19, 26, 48, 9 ,4, 9, W, None, None, ,  
12/06/2017 20:17, 26, 48, 9 ,5, 9, W, None, None, ,  
12/06/2017 20:07, 25, 49, 9 ,7, 9, W, None, None, ,  
12/06/2017 20:04, 25, 49, 9 ,5, 7, W, None, None, ,  
12/06/2017 19:57, 25, 49, 9 ,4, 7, W, None, None, ,  
12/06/2017 19:49, 25, 49, 8 ,6, 6, W, None, None, ,  
12/06/2017 19:47, 24, 49, 8 ,5, 7, SW, None, None, ,  
12/06/2017 19:37, 24, 49, 8 ,6, 6, SW, None, None, ,  
12/06/2017 19:34, 24, 48, 8 ,6, 6, SW, None, None, ,  
12/06/2017 19:27, 25, 47, 8 ,5, 12, W, None, None, ,  
12/06/2017 19:19, 26, 46, 8 ,9, 12, W, None, None, ,  
12/06/2017 19:17, 26, 46, 8 ,9, 12, NW, None, None, ,  
12/06/2017 19:07, 26, 46, 8 ,10, 12, W, None, None, ,  
12/06/2017 19:04, 26, 46, 8 ,10, 12, W, None, None, ,  
12/06/2017 18:57, 26, 46, 8 ,10, 12, W, None, None, ,  
12/06/2017 18:49, 26, 47, 8 ,10, 13, NW, None, None, ,  
12/06/2017 18:47, 25, 47, 8 ,10, 13, W, None, None, ,  
12/06/2017 18:37, 25, 47, 8 ,11, 15, NW, None, None, ,  
12/06/2017 18:34, 25, 47, 8 ,11, 15, NW, None, None, ,  
Change End Date:

Copyright © 1998-2015 Vaisala, Inc.
All Rights Reserved
Send comments about the data to:
SCAN Web ® is a registered trademark of Vaisala, Inc.
SCAN Web Version 6.0